Time;durP1;ratioP1;P1;durP2;ratioP2;P2;SDS_P1;SDS_P2;PMS_P1;PMS_P2;Temp;Humidity;BMP_temperature;BMP_pressure;BME280_temperature;BME280_humidity;BME280_pressure;Samples;Min_cycle;Max_cycle;Signal;HPM_P1;HPM_P2
2022/09/16 00:02:20;;;;;;;10.55;2.50;;;;;;;14.94;67.84;101035.16;6305200;22;20014;-57
2022/09/16 00:04:45;;;;;;;7.97;1.67;;;;;;;14.91;67.98;101038.50;6304187;22;20061;-57
2022/09/16 00:07:11;;;;;;;5.25;1.92;;;;;;;14.92;67.99;101029.81;6303433;22;20035;-57
2022/09/16 00:09:37;;;;;;;6.03;1.95;;;;;;;14.89;68.03;101030.38;6304699;22;20007;-57
2022/09/16 00:12:04;;;;;;;6.95;1.90;;;;;;;14.84;68.28;101027.59;6303405;22;20049;-56
2022/09/16 00:14:29;;;;;;;6.50;1.95;;;;;;;14.91;68.03;101030.94;6303417;22;20074;-56
2022/09/16 00:16:54;;;;;;;7.22;1.80;;;;;;;14.89;67.97;101029.53;6304066;22;20031;-57
2022/09/16 00:19:19;;;;;;;7.85;2.50;;;;;;;14.86;68.12;101024.53;6305904;22;20006;-57
2022/09/16 00:21:46;;;;;;;7.28;2.20;;;;;;;14.84;68.77;101026.75;6305046;22;20026;-57
2022/09/16 00:24:12;;;;;;;5.97;1.92;;;;;;;14.87;68.61;101023.41;6304345;22;20305;-57
2022/09/16 00:26:38;;;;;;;7.75;1.95;;;;;;;14.84;68.75;101022.00;6304678;22;20008;-57
2022/09/16 00:29:03;;;;;;;4.40;1.75;;;;;;;14.84;68.84;101026.75;6304113;22;20013;-57
2022/09/16 00:31:29;;;;;;;8.00;2.00;;;;;;;14.83;68.62;101019.50;6305565;22;20041;-57
2022/09/16 00:33:54;;;;;;;5.63;2.10;;;;;;;14.83;68.33;101014.72;6303044;22;20003;-56
2022/09/16 00:36:19;;;;;;;5.63;1.88;;;;;;;14.80;68.42;101025.63;6304722;22;20011;-56
2022/09/16 00:38:44;;;;;;;7.75;2.03;;;;;;;14.82;68.51;101017.81;6304064;22;20008;-57
2022/09/16 00:41:18;;;;;;;6.32;2.28;;;;;;;14.80;68.67;101022.84;6304970;22;20326;-57
2022/09/16 00:43:55;;;;;;;6.40;2.65;;;;;;;14.85;68.36;101018.06;6303367;22;20465;-57
2022/09/16 00:46:40;;;;;;;5.18;2.10;;;;;;;14.89;67.89;101012.78;6304503;22;20010;-57
2022/09/16 00:49:28;;;;;;;6.40;2.20;;;;;;;14.85;67.39;101011.66;6304335;22;19999;-57
2022/09/16 00:51:58;;;;;;;7.55;2.38;;;;;;;14.75;67.43;101006.06;6303795;22;20378;-56
2022/09/16 00:54:25;;;;;;;5.60;2.20;;;;;;;14.70;67.36;101009.69;6305812;22;20003;-57
2022/09/16 00:56:54;;;;;;;9.48;2.20;;;;;;;14.70;67.38;101004.94;6302511;22;20017;-57
2022/09/16 00:59:25;;;;;;;4.88;2.13;;;;;;;14.68;67.74;101007.16;6304490;22;20007;-57
2022/09/16 01:01:53;;;;;;;7.25;2.75;;;;;;;14.64;67.89;101002.41;6304184;22;19999;-57
2022/09/16 01:04:32;;;;;;;11.38;2.33;;;;;;;14.65;67.62;101010.50;6302323;22;20003;-57
2022/09/16 01:06:58;;;;;;;8.18;2.63;;;;;;;14.60;67.56;101001.28;6305240;22;20377;-56
2022/09/16 01:09:25;;;;;;;6.03;2.78;;;;;;;14.55;67.73;101004.06;6302983;22;20509;-57
2022/09/16 01:11:50;;;;;;;8.70;2.10;;;;;;;14.54;67.28;100999.59;6303956;22;20081;-57
2022/09/16 01:17:17;;;;;;;6.82;2.60;;;;;;;14.51;67.98;100997.38;6304418;22;20190;-57
2022/09/16 01:20:04;;;;;;;10.38;2.50;;;;;;;14.44;67.77;101001.22;6303762;22;20096;-57
2022/09/16 01:23:02;;;;;;;5.80;2.28;;;;;;;14.45;67.81;101005.69;6276944;22;20039;-57
2022/09/16 01:25:55;;;;;;;8.57;2.92;;;;;;;14.38;67.95;101007.91;6305568;22;20015;-57
2022/09/16 01:28:52;;;;;;;5.78;2.40;;;;;;;14.45;67.64;101000.09;6307122;22;20080;-57
2022/09/16 01:31:33;;;;;;;7.50;2.25;;;;;;;14.43;67.89;100998.72;6305065;22;20018;-57
2022/09/16 01:34:15;;;;;;;7.72;2.45;;;;;;;14.34;67.73;101003.97;6306328;22;20006;-58
2022/09/16 01:36:56;;;;;;;6.13;2.40;;;;;;;14.38;67.57;101005.13;6306101;22;20341;-57
2022/09/16 01:39:39;;;;;;;9.43;2.50;;;;;;;14.35;67.99;101002.88;6305040;22;20015;-57
2022/09/16 01:42:21;;;;;;;7.40;2.40;;;;;;;14.33;67.60;101001.47;6307408;22;20052;-58
2022/09/16 01:44:59;;;;;;;7.03;2.20;;;;;;;14.29;67.56;100998.38;6305360;22;20340;-57
2022/09/16 01:47:47;;;;;;;7.10;2.38;;;;;;;14.25;67.46;100998.09;6306947;22;20003;-58
2022/09/16 01:50:26;;;;;;;9.23;2.92;;;;;;;14.22;67.25;101001.41;6305703;22;20052;-58
2022/09/16 01:53:01;;;;;;;8.60;2.38;;;;;;;14.24;67.36;100990.84;6306569;22;20061;-57
2022/09/16 01:55:34;;;;;;;8.52;2.70;;;;;;;14.23;67.60;100985.53;6306980;22;20056;-57
2022/09/16 01:58:07;;;;;;;6.45;2.47;;;;;;;14.13;67.22;100991.06;6305773;22;20003;-57
2022/09/16 02:00:32;;;;;;;7.35;2.35;;;;;;;14.13;67.13;101000.28;6306555;22;20003;-58
2022/09/16 02:03:09;;;;;;;7.90;2.35;;;;;;;14.14;67.29;101006.69;6306605;22;20030;-58
2022/09/16 02:05:38;;;;;;;6.65;2.10;;;;;;;14.10;67.08;101006.41;6305135;22;20077;-58
2022/09/16 02:08:18;;;;;;;5.97;2.33;;;;;;;14.12;67.38;101015.34;6305974;22;20037;-57
2022/09/16 02:10:49;;;;;;;6.47;2.13;;;;;;;14.08;67.21;101013.38;6307311;22;20021;-57
2022/09/16 02:13:22;;;;;;;8.13;2.30;;;;;;;14.04;67.07;101013.09;6305525;22;20007;-58
2022/09/16 02:15:52;;;;;;;5.03;2.28;;;;;;;13.96;67.50;101014.44;6305053;22;20030;-58
2022/09/16 02:18:28;;;;;;;7.38;2.40;;;;;;;13.99;67.36;101022.28;6306425;22;20030;-58
2022/09/16 02:20:56;;;;;;;6.03;2.28;;;;;;;13.99;66.94;101018.66;6305326;22;20008;-58
2022/09/16 02:23:28;;;;;;;7.03;2.38;;;;;;;13.99;67.00;101016.69;6306511;22;20007;-58
2022/09/16 02:25:54;;;;;;;10.32;2.30;;;;;;;13.98;67.02;101009.41;6306470;22;20080;-58
2022/09/16 02:28:25;;;;;;;5.50;2.33;;;;;;;13.97;67.10;101013.34;6305295;22;20018;-57
2022/09/16 02:30:55;;;;;;;5.57;2.10;;;;;;;14.03;67.16;101011.41;6306108;22;20301;-57
2022/09/16 02:33:23;;;;;;;7.60;2.15;;;;;;;14.04;66.93;101001.94;6304462;22;20011;-58
2022/09/16 02:35:53;;;;;;;6.15;2.13;;;;;;;14.01;67.06;101005.25;6303769;22;20019;-58
2022/09/16 02:38:32;;;;;;;6.97;2.20;;;;;;;14.04;67.06;101007.50;6306555;22;20018;-58
2022/09/16 02:41:00;;;;;;;5.88;2.40;;;;;;;14.04;67.52;101006.69;6305901;22;19999;-58
2022/09/16 02:43:27;;;;;;;6.38;1.80;;;;;;;14.09;67.27;101009.47;6305842;22;20003;-58
2022/09/16 02:46:04;;;;;;;6.50;2.10;;;;;;;14.06;67.48;100996.06;6305013;22;20373;-57
2022/09/16 02:48:41;;;;;;;5.07;2.00;;;;;;;14.06;67.63;101002.47;6305318;22;20007;-58
2022/09/16 02:51:31;;;;;;;5.65;2.10;;;;;;;14.09;67.13;101004.72;6305492;22;20007;-58
2022/09/16 02:54:09;;;;;;;4.30;2.05;;;;;;;14.05;67.47;101013.94;6306199;22;20027;-58
2022/09/16 02:56:40;;;;;;;6.75;2.05;;;;;;;14.03;67.48;101007.75;6303093;22;20165;-58
2022/09/16 02:59:09;;;;;;;6.33;2.20;;;;;;;14.02;67.55;101011.66;6305454;22;20434;-58
2022/09/16 03:01:40;;;;;;;5.00;2.28;;;;;;;14.00;67.75;101006.38;6304501;22;20591;-57
2022/09/16 03:04:06;;;;;;;6.03;2.28;;;;;;;14.00;67.41;101001.63;6306089;22;20026;-58
2022/09/16 03:06:35;;;;;;;7.03;2.35;;;;;;;14.00;67.99;101003.59;6304850;22;20009;-57
2022/09/16 03:09:03;;;;;;;7.85;2.67;;;;;;;13.96;67.70;101006.06;6305405;22;20003;-58
2022/09/16 03:11:58;;;;;;;5.05;2.00;;;;;;;14.02;67.79;101009.72;6304356;22;20041;-58
2022/09/16 03:14:42;;;;;;;6.80;2.30;;;;;;;14.05;68.06;100997.19;6304955;22;20056;-58
2022/09/16 03:17:46;;;;;;;8.40;2.17;;;;;;;14.04;67.76;100995.50;6304872;22;20011;-58
2022/09/16 03:20:52;;;;;;;7.35;2.40;;;;;;;14.08;67.60;100993.84;6222822;22;20015;-58
2022/09/16 03:23:48;;;;;;;9.63;2.22;;;;;;;14.07;67.95;101000.53;6304960;22;20330;-59
2022/09/16 03:26:33;;;;;;;8.20;2.50;;;;;;;14.05;68.36;101009.19;6305442;22;20016;-58
2022/09/16 03:29:32;;;;;;;5.60;2.05;;;;;;;14.05;67.84;100999.97;6304974;22;20434;-58
2022/09/16 03:32:17;;;;;;;6.18;1.92;;;;;;;14.08;68.32;101002.22;6304242;22;20339;-59
2022/09/16 03:34:58;;;;;;;4.97;2.50;;;;;;;14.01;68.50;100999.69;6306279;22;20374;-59
2022/09/16 03:37:26;;;;;;;8.40;2.33;;;;;;;14.00;67.87;100996.03;6304250;22;20011;-58
2022/09/16 03:39:56;;;;;;;5.70;1.88;;;;;;;13.96;68.48;100994.91;6305374;22;20434;-58
2022/09/16 03:42:22;;;;;;;6.00;2.35;;;;;;;13.97;68.40;100992.97;6304923;22;20025;-58
2022/09/16 03:44:47;;;;;;;7.03;2.20;;;;;;;13.91;68.71;100992.13;6302837;22;20844;-58
2022/09/16 03:47:13;;;;;;;5.45;2.10;;;;;;;13.90;68.39;100987.63;6305176;22;20007;-58
2022/09/16 03:49:38;;;;;;;6.25;2.35;;;;;;;13.88;68.43;100992.66;6304770;22;20300;-58
2022/09/16 03:52:04;;;;;;;5.22;1.90;;;;;;;13.88;68.82;100992.66;6304726;22;20011;-58
2022/09/16 03:54:30;;;;;;;5.80;2.15;;;;;;;13.89;68.78;100991.53;6304740;22;20030;-58
2022/09/16 03:56:56;;;;;;;6.72;1.85;;;;;;;13.85;68.76;100997.94;6305466;22;20136;-58
2022/09/16 03:59:21;;;;;;;13.57;2.53;;;;;;;13.87;68.52;100992.91;6304262;22;20047;-56
2022/09/16 04:01:47;;;;;;;6.85;2.17;;;;;;;13.88;69.02;100994.59;6302568;22;20007;-57
2022/09/16 04:04:12;;;;;;;5.97;1.90;;;;;;;13.87;69.42;100996.56;6306034;22;19999;-57
2022/09/16 04:06:37;;;;;;;8.05;1.77;;;;;;;13.88;69.17;100995.44;6302888;22;20007;-57
2022/09/16 04:09:05;;;;;;;2.67;1.70;;;;;;;13.82;68.79;100999.31;6304505;22;20038;-57
2022/09/16 04:11:31;;;;;;;7.65;2.20;;;;;;;13.81;68.66;100989.25;6305650;22;20003;-57
2022/09/16 04:13:57;;;;;;;5.82;1.92;;;;;;;13.81;68.98;101000.41;6303834;22;20305;-59
2022/09/16 04:16:23;;;;;;;6.60;1.85;;;;;;;13.80;68.90;100995.13;6304481;22;20003;-58
2022/09/16 04:18:48;;;;;;;5.80;1.95;;;;;;;13.84;68.60;100993.47;6304832;22;20006;-58
2022/09/16 04:21:14;;;;;;;6.43;1.70;;;;;;;13.81;68.99;100996.78;6305028;22;20008;-58
2022/09/16 04:23:39;;;;;;;3.88;2.05;;;;;;;13.80;68.73;100997.91;6305278;22;20106;-58
2022/09/16 04:26:05;;;;;;;5.97;1.88;;;;;;;13.84;68.86;101005.47;6303640;22;20032;-58
2022/09/16 04:28:31;;;;;;;5.85;2.13;;;;;;;13.82;69.27;100999.31;6303957;22;20332;-58
2022/09/16 04:31:02;;;;;;;4.97;1.70;;;;;;;13.79;69.29;101008.22;6304214;22;20025;-58
2022/09/16 04:33:29;;;;;;;6.53;1.80;;;;;;;13.80;69.17;101007.13;6303687;22;20015;-58
2022/09/16 04:36:01;;;;;;;5.22;1.92;;;;;;;13.83;69.23;101014.09;6304721;22;20007;-58
2022/09/16 04:38:26;;;;;;;6.40;1.60;;;;;;;13.82;69.28;101015.19;6305200;22;20040;-58
2022/09/16 04:40:53;;;;;;;2.13;1.60;;;;;;;13.82;69.55;101018.84;6303289;22;20011;-58
2022/09/16 04:43:18;;;;;;;7.30;2.10;;;;;;;13.79;69.49;101013.78;6305381;22;20066;-57
2022/09/16 04:45:43;;;;;;;4.82;1.70;;;;;;;13.79;69.45;101013.78;6304265;22;20421;-58
2022/09/16 04:48:09;;;;;;;4.57;1.40;;;;;;;13.77;69.89;101006.81;6303903;22;20011;-58
2022/09/16 04:50:34;;;;;;;6.47;1.88;;;;;;;13.79;69.83;100999.84;6304018;22;20037;-58
2022/09/16 04:52:59;;;;;;;4.18;1.30;;;;;;;13.83;69.75;100987.03;6305068;22;19999;-58
2022/09/16 04:55:24;;;;;;;5.97;1.40;;;;;;;13.83;69.99;100983.41;6304239;22;20414;-58
2022/09/16 04:57:50;;;;;;;3.65;1.52;;;;;;;13.79;69.68;100983.09;6303798;22;19999;-58
2022/09/16 05:00:15;;;;;;;6.45;1.50;;;;;;;13.81;69.88;100986.47;6305408;22;20723;-58
2022/09/16 05:02:44;;;;;;;4.43;1.30;;;;;;;13.79;69.35;100991.47;6304259;22;20083;-57
2022/09/16 05:05:10;;;;;;;5.43;1.40;;;;;;;13.85;69.16;100998.75;6307408;22;20483;-58
2022/09/16 05:07:36;;;;;;;5.65;1.38;;;;;;;13.80;69.33;100992.34;6304655;22;20026;-58
2022/09/16 05:10:01;;;;;;;4.60;1.25;;;;;;;13.78;69.33;100995.38;6305672;22;20007;-58
2022/09/16 05:12:26;;;;;;;4.05;1.30;;;;;;;13.80;69.01;100990.38;6307349;22;20042;-58
2022/09/16 05:14:51;;;;;;;5.60;1.38;;;;;;;13.77;69.53;100993.69;6306613;22;20435;-58
2022/09/16 05:17:17;;;;;;;1.90;1.02;;;;;;;13.79;69.19;101001.78;6304679;22;20043;-58
2022/09/16 05:19:42;;;;;;;2.58;1.40;;;;;;;13.74;69.24;101002.59;6306873;22;19999;-58
2022/09/16 05:22:07;;;;;;;4.18;1.25;;;;;;;13.74;69.15;101003.44;6305837;22;20055;-57
2022/09/16 05:24:35;;;;;;;3.28;1.30;;;;;;;13.73;69.61;101012.09;6306693;22;20686;-58
2022/09/16 05:27:01;;;;;;;6.45;1.40;;;;;;;13.75;69.76;101018.22;6306622;22;20003;-57
2022/09/16 05:29:26;;;;;;;5.35;1.50;;;;;;;13.73;70.16;101012.94;6305019;22;20015;-57
2022/09/16 05:31:51;;;;;;;5.63;1.27;;;;;;;13.74;70.01;101010.97;6304886;22;20043;-57
2022/09/16 05:34:20;;;;;;;5.35;1.55;;;;;;;13.74;70.51;101016.56;6304882;22;20068;-57
2022/09/16 05:36:46;;;;;;;7.00;1.58;;;;;;;13.75;70.63;101012.66;6304039;22;20013;-57
2022/09/16 05:39:14;;;;;;;5.32;1.50;;;;;;;13.75;70.85;101016.31;6306595;22;20420;-57
2022/09/16 05:41:41;;;;;;;4.40;1.17;;;;;;;13.73;70.70;101006.50;6305219;22;20030;-57
2022/09/16 05:44:06;;;;;;;7.57;1.30;;;;;;;13.75;70.43;101007.94;6304164;22;20027;-57
2022/09/16 05:46:32;;;;;;;5.90;1.73;;;;;;;13.77;70.81;101004.88;6306521;22;20018;-57
2022/09/16 05:48:58;;;;;;;3.60;1.20;;;;;;;13.81;70.59;101008.78;6306313;22;20083;-58
2022/09/16 05:51:24;;;;;;;6.80;1.60;;;;;;;13.79;70.91;101015.75;6306062;22;20427;-57
2022/09/16 05:53:51;;;;;;;5.90;1.23;;;;;;;13.76;70.95;101011.56;6303272;22;20003;-58
2022/09/16 05:56:25;;;;;;;6.15;1.60;;;;;;;13.80;70.86;101007.13;6303139;22;20011;-57
2022/09/16 05:58:52;;;;;;;5.95;1.40;;;;;;;13.83;70.49;101008.50;6303735;22;20029;-57
2022/09/16 06:01:20;;;;;;;3.90;1.20;;;;;;;13.86;70.78;101014.38;6302670;22;20011;-58
2022/09/16 06:03:47;;;;;;;6.18;1.05;;;;;;;13.88;71.19;101012.19;6300852;22;20008;-58
2022/09/16 06:06:18;;;;;;;5.47;1.17;;;;;;;13.90;70.14;101004.34;6300913;22;20027;-57
2022/09/16 06:08:44;;;;;;;7.60;1.10;;;;;;;13.90;70.48;101012.72;6303332;22;20003;-58
2022/09/16 06:11:10;;;;;;;4.15;1.00;;;;;;;13.93;70.78;101022.53;6301768;22;20034;-58
2022/09/16 06:13:36;;;;;;;3.55;1.08;;;;;;;13.84;70.55;101013.00;6300011;22;20164;-58
2022/09/16 06:16:03;;;;;;;3.03;1.10;;;;;;;13.85;70.42;101009.09;6301206;22;20046;-57
2022/09/16 06:18:29;;;;;;;2.97;1.10;;;;;;;13.87;70.33;101023.59;6301566;22;20012;-58
2022/09/16 06:20:56;;;;;;;4.00;1.30;;;;;;;13.84;70.56;101022.22;6298871;22;20003;-57
2022/09/16 06:23:22;;;;;;;4.18;0.93;;;;;;;13.90;70.11;101012.72;6302822;22;20007;-58
2022/09/16 06:25:48;;;;;;;3.13;0.98;;;;;;;13.89;70.31;101021.38;6302607;22;19999;-58
2022/09/16 06:28:14;;;;;;;5.50;1.20;;;;;;;13.96;70.61;101033.16;6304130;22;20099;-58
2022/09/16 06:30:40;;;;;;;2.28;0.80;;;;;;;13.94;69.95;101030.59;6302782;22;20025;-58
2022/09/16 06:33:06;;;;;;;5.22;1.35;;;;;;;13.95;69.98;101034.25;6301872;22;20023;-57
2022/09/16 06:35:33;;;;;;;4.30;1.08;;;;;;;13.98;70.12;101030.91;6304924;22;20054;-58
2022/09/16 06:37:59;;;;;;;3.78;1.17;;;;;;;13.92;70.46;101032.84;6303866;22;20042;-58
2022/09/16 06:40:24;;;;;;;4.53;0.95;;;;;;;13.94;70.08;101032.56;6303778;22;20007;-58
2022/09/16 06:42:53;;;;;;;4.78;1.10;;;;;;;13.95;70.43;101037.91;6305476;22;20466;-58
2022/09/16 06:45:20;;;;;;;2.33;1.00;;;;;;;13.97;70.01;101034.81;6304162;22;20022;-58
2022/09/16 06:47:45;;;;;;;3.28;1.15;;;;;;;13.93;70.27;101037.31;6304227;22;19999;-58
2022/09/16 06:50:10;;;;;;;2.92;1.23;;;;;;;13.96;70.64;101045.16;6304748;22;20439;-58
2022/09/16 06:52:36;;;;;;;4.97;1.17;;;;;;;13.96;70.97;101042.34;6304755;22;20015;-58
2022/09/16 06:55:01;;;;;;;1.98;0.80;;;;;;;13.97;71.00;101051.56;6303770;22;20097;-58
2022/09/16 06:57:26;;;;;;;3.58;1.10;;;;;;;13.92;71.42;101046.81;6301876;22;20007;-58
2022/09/16 06:59:52;;;;;;;3.60;1.10;;;;;;;13.94;70.63;101041.78;6302529;22;20062;-58
2022/09/16 07:02:18;;;;;;;3.55;1.10;;;;;;;13.91;71.05;101039.56;6300643;22;20026;-59
2022/09/16 07:04:44;;;;;;;5.55;1.42;;;;;;;13.92;71.04;101049.59;6304010;22;20416;-58
2022/09/16 07:07:13;;;;;;;2.83;1.10;;;;;;;13.92;70.91;101044.00;6303626;22;20018;-58
2022/09/16 07:09:38;;;;;;;4.45;1.27;;;;;;;13.93;70.49;101033.69;6304041;22;20003;-58
2022/09/16 07:12:05;;;;;;;4.32;1.50;;;;;;;13.98;70.90;101042.91;6303191;22;20014;-59
2022/09/16 07:14:33;;;;;;;4.75;1.25;;;;;;;13.99;70.26;101041.81;6304663;22;20007;-58
2022/09/16 07:16:59;;;;;;;3.05;1.42;;;;;;;14.00;70.42;101035.13;6302058;22;20018;-58
2022/09/16 07:19:25;;;;;;;6.30;1.70;;;;;;;14.04;70.30;101032.63;6304078;22;20023;-58
2022/09/16 07:21:50;;;;;;;3.20;1.23;;;;;;;14.07;70.24;101034.00;6303353;22;20408;-58
2022/09/16 07:24:16;;;;;;;5.65;1.40;;;;;;;14.13;70.36;101038.53;6301875;22;20011;-58
2022/09/16 07:26:43;;;;;;;8.05;2.50;;;;;;;14.52;74.11;101049.31;6303328;22;20117;-58
2022/09/16 07:29:14;;;;;;;5.22;1.30;;;;;;;14.40;70.27;101050.34;6301496;22;20045;-58
2022/09/16 07:31:40;;;;;;;6.18;1.70;;;;;;;14.62;70.95;101052.13;6302020;22;20015;-59
2022/09/16 07:34:08;;;;;;;2.38;1.17;;;;;;;14.67;69.64;101061.38;6304430;22;20014;-59
2022/09/16 07:36:43;;;;;;;4.03;1.08;;;;;;;14.68;69.21;101067.78;6301806;22;20018;-59
2022/09/16 07:39:10;;;;;;;6.05;1.35;;;;;;;14.66;68.75;101059.69;6302312;22;20007;-58
2022/09/16 07:41:38;;;;;;;4.72;1.10;;;;;;;14.60;68.63;101059.94;6304650;22;20037;-59
2022/09/16 07:44:06;;;;;;;3.33;1.05;;;;;;;14.55;68.33;101058.00;6302939;22;20003;-59
2022/09/16 07:46:33;;;;;;;3.50;1.13;;;;;;;14.52;69.12;101066.91;6304032;22;20331;-59
2022/09/16 07:49:01;;;;;;;6.10;1.30;;;;;;;14.52;68.94;101066.06;6303649;22;20011;-59
2022/09/16 07:51:27;;;;;;;2.67;1.30;;;;;;;14.52;69.19;101060.50;6300878;22;20066;-59
2022/09/16 07:53:59;;;;;;;6.13;1.55;;;;;;;14.48;69.80;101065.75;6303196;22;20030;-58
2022/09/16 07:56:27;;;;;;;4.38;1.50;;;;;;;14.51;69.87;101062.44;6304116;22;20010;-59
2022/09/16 07:58:54;;;;;;;4.40;1.48;;;;;;;14.47;70.45;101064.91;6302320;22;20084;-59
2022/09/16 08:01:20;;;;;;;3.67;1.38;;;;;;;14.51;70.91;101072.78;6303284;22;20007;-58
2022/09/16 08:03:46;;;;;;;4.63;1.58;;;;;;;14.49;70.41;101073.88;6302208;22;20010;-58
2022/09/16 08:06:17;;;;;;;5.03;1.70;;;;;;;14.56;70.46;101075.59;6302182;22;20035;-58
2022/09/16 08:08:44;;;;;;;5.68;1.90;;;;;;;14.69;70.41;101081.47;6302906;22;20011;-58
2022/09/16 08:11:11;;;;;;;5.57;1.45;;;;;;;14.79;70.90;101083.47;6302902;22;20068;-58
2022/09/16 08:13:37;;;;;;;4.72;1.63;;;;;;;14.96;70.99;101081.25;6303696;22;20081;-59
2022/09/16 08:16:05;;;;;;;4.75;1.80;;;;;;;15.08;70.51;101082.97;6303555;22;20046;-59
2022/09/16 08:18:31;;;;;;;4.70;1.73;;;;;;;15.24;69.87;101076.25;6301791;22;20015;-58
2022/09/16 08:20:56;;;;;;;3.47;1.40;;;;;;;15.28;69.25;101079.34;6302575;22;20034;-59
2022/09/16 08:23:22;;;;;;;4.25;1.77;;;;;;;15.40;69.12;101077.09;6300842;22;20072;-59
2022/09/16 08:25:58;;;;;;;3.22;1.63;;;;;;;15.53;68.74;101075.72;6300331;22;20006;-59
2022/09/16 08:28:25;;;;;;;4.43;1.50;;;;;;;15.65;69.33;101082.72;6302788;22;20007;-58
2022/09/16 08:30:50;;;;;;;6.05;1.40;;;;;;;15.61;68.43;101089.97;6304278;22;20003;-58
2022/09/16 08:33:19;;;;;;;6.05;1.55;;;;;;;15.55;67.84;101082.69;6298150;22;20011;-59
2022/09/16 08:35:45;;;;;;;6.97;1.75;;;;;;;15.51;68.53;101089.13;6301552;22;20073;-58
2022/09/16 08:38:12;;;;;;;5.68;1.73;;;;;;;15.81;72.13;101089.13;6303121;22;20003;-59
2022/09/16 08:40:42;;;;;;;5.93;1.83;;;;;;;15.95;68.86;101087.44;6302797;22;20008;-59
2022/09/16 08:43:18;;;;;;;5.57;1.63;;;;;;;16.08;68.06;101093.56;6300541;22;20415;-59
2022/09/16 08:45:54;;;;;;;5.80;1.73;;;;;;;16.10;67.49;101077.31;6304212;22;20377;-59
2022/09/16 08:48:30;;;;;;;3.75;1.52;;;;;;;16.08;66.71;101073.97;6301985;22;20042;-59
2022/09/16 08:50:59;;;;;;;3.90;1.27;;;;;;;16.14;67.02;101079.25;6303425;22;20091;-58
2022/09/16 08:53:40;;;;;;;5.53;1.48;;;;;;;16.25;67.00;101077.25;6301928;22;20423;-59
2022/09/16 08:56:11;;;;;;;4.50;1.70;;;;;;;16.30;66.60;101080.03;6301464;22;20332;-58
2022/09/16 08:58:49;;;;;;;4.22;1.20;;;;;;;16.39;66.25;101083.94;6302829;22;20003;-59
2022/09/16 09:01:25;;;;;;;3.47;1.30;;;;;;;16.40;66.23;101080.00;6301299;22;20014;-58
2022/09/16 09:03:50;;;;;;;5.45;1.33;;;;;;;16.46;65.61;101078.00;6302873;22;20003;-58
2022/09/16 09:06:25;;;;;;;3.53;1.30;;;;;;;16.45;64.68;101084.75;6303064;22;20015;-58
2022/09/16 09:09:12;;;;;;;7.13;1.70;;;;;;;16.44;64.86;101085.88;6302230;22;20319;-59
2022/09/16 09:12:04;;;;;;;7.10;1.50;;;;;;;16.40;64.67;101091.19;6300645;22;20017;-58
2022/09/16 09:14:42;;;;;;;3.95;1.30;;;;;;;16.41;64.74;101078.03;6302480;22;20003;-58
2022/09/16 09:17:22;;;;;;;3.95;1.13;;;;;;;16.43;64.13;101081.41;6303852;22;20298;-59
2022/09/16 09:20:10;;;;;;;4.75;1.27;;;;;;;16.49;64.17;101083.03;6303345;22;20012;-57
2022/09/16 09:23:11;;;;;;;4.70;1.00;;;;;;;16.38;63.59;101079.44;6286904;22;20018;-57
2022/09/16 09:25:56;;;;;;;2.97;0.93;;;;;;;16.31;63.35;101087.31;6269051;22;20007;-57
2022/09/16 09:28:34;;;;;;;5.13;1.20;;;;;;;16.21;63.09;101078.94;6303363;22;20082;-57
2022/09/16 09:31:17;;;;;;;5.10;1.10;;;;;;;16.24;63.24;101086.78;6300828;22;20366;-57
2022/09/16 09:34:03;;;;;;;3.95;1.33;;;;;;;16.29;63.77;101083.13;6302107;22;20018;-57
2022/09/16 09:37:25;;;;;;;5.13;1.30;;;;;;;16.26;63.71;101087.31;6239635;22;20003;-57
2022/09/16 09:39:57;;;;;;;5.38;1.30;;;;;;;16.30;62.54;101071.63;6177882;23;20023;-58
2022/09/16 09:42:28;;;;;;;4.10;1.13;;;;;;;16.50;62.72;101078.25;6177817;23;20084;-57
2022/09/16 09:45:04;;;;;;;5.55;0.93;;;;;;;16.70;61.63;101080.97;6245578;22;20046;-57
2022/09/16 09:47:42;;;;;;;4.57;1.23;;;;;;;16.66;60.74;101075.13;6303861;22;20011;-59
2022/09/16 09:50:16;;;;;;;2.15;0.90;;;;;;;16.77;61.16;101075.91;6304463;22;20015;-58
2022/09/16 09:52:53;;;;;;;2.20;0.93;;;;;;;16.74;61.78;101076.50;6305720;22;20014;-58
2022/09/16 09:55:24;;;;;;;4.32;1.25;;;;;;;16.78;61.74;101071.13;6303380;22;20498;-58
2022/09/16 09:58:17;;;;;;;3.40;1.00;;;;;;;16.90;60.81;101080.91;6304106;22;20077;-59
2022/09/16 10:00:43;;;;;;;4.03;1.00;;;;;;;16.78;58.57;101076.75;6304392;22;20003;-59
2022/09/16 10:03:13;;;;;;;3.67;0.68;;;;;;;16.48;55.09;101091.75;6301728;22;20094;-59
2022/09/16 10:05:39;;;;;;;2.33;0.50;;;;;;;16.42;57.19;101102.13;6301752;22;20022;-60
2022/09/16 10:08:20;;;;;;;3.75;0.90;;;;;;;16.29;58.86;101125.97;6303466;22;20101;-58
2022/09/16 10:11:19;;;;;;;6.10;0.82;;;;;;;16.13;60.44;101139.19;6302820;22;20003;-59
2022/09/16 10:13:50;;;;;;;16.20;1.70;;;;;;;15.86;62.27;101144.25;6304193;22;20105;-59
2022/09/16 10:16:19;;;;;;;5.18;1.00;;;;;;;15.64;60.95;101131.38;6304185;22;20014;-60
2022/09/16 10:18:55;;;;;;;3.88;0.80;;;;;;;15.51;61.21;101125.50;6303032;22;20007;-60
2022/09/16 10:21:20;;;;;;;2.15;0.50;;;;;;;15.34;61.34;101117.38;6302103;22;20004;-59
2022/09/16 10:23:56;;;;;;;2.40;0.43;;;;;;;15.22;60.97;101103.66;6303957;22;20007;-60
2022/09/16 10:26:27;;;;;;;0.55;0.30;;;;;;;15.09;60.58;101107.00;6303556;22;20093;-59
2022/09/16 10:29:18;;;;;;;0.95;0.30;;;;;;;15.11;62.05;101091.63;6305659;22;20454;-59
2022/09/16 10:31:44;;;;;;;0.20;0.20;;;;;;;14.94;62.65;101094.69;6303076;22;20019;-59
2022/09/16 10:34:17;;;;;;;2.10;0.60;;;;;;;14.91;62.63;101102.78;6301653;22;20004;-60
2022/09/16 10:36:42;;;;;;;0.40;0.30;;;;;;;14.89;63.55;101094.66;6305454;22;20043;-59
2022/09/16 10:39:21;;;;;;;1.70;0.50;;;;;;;14.85;64.37;101095.50;6304314;22;19999;-59
2022/09/16 10:41:47;;;;;;;5.68;0.70;;;;;;;14.82;64.78;101102.50;6277698;22;20112;-59
2022/09/16 10:44:16;;;;;;;3.65;0.70;;;;;;;14.78;65.13;101095.78;6303866;22;20003;-59
2022/09/16 10:47:00;;;;;;;2.22;0.85;;;;;;;14.82;65.78;101102.50;6304250;22;20014;-59
2022/09/16 10:49:33;;;;;;;3.20;0.68;;;;;;;14.88;66.59;101106.97;6304266;22;20004;-60
2022/09/16 10:52:20;;;;;;;5.07;0.77;;;;;;;15.14;67.42;101107.03;6303600;22;20301;-59
2022/09/16 10:54:46;;;;;;;2.97;0.65;;;;;;;15.18;67.88;101100.59;6304631;22;20026;-59
2022/09/16 10:57:30;;;;;;;2.50;0.90;;;;;;;15.22;67.19;101095.28;6304471;22;20079;-60
2022/09/16 11:00:14;;;;;;;4.10;0.80;;;;;;;15.25;67.56;101099.47;6304213;22;19999;-59
2022/09/16 11:03:17;;;;;;;6.43;0.98;;;;;;;15.19;68.24;101101.44;6305245;22;20086;-59
2022/09/16 11:06:01;;;;;;;;;;;;;;;15.36;66.41;101093.59;6303065;22;20068;-59
2022/09/16 11:08:47;;;;;;;3.72;1.08;;;;;;;15.31;68.39;101099.19;6304721;22;19917;-59
2022/09/16 11:11:36;;;;;;;5.05;1.23;;;;;;;15.31;68.86;101099.19;6302150;22;20300;-58
2022/09/16 11:14:07;;;;;;;3.20;1.08;;;;;;;15.30;69.18;101105.91;6302947;22;20007;-59
2022/09/16 11:16:58;;;;;;;3.13;1.17;;;;;;;15.35;69.34;101102.28;6304407;22;20053;-58
2022/09/16 11:19:32;;;;;;;3.17;1.23;;;;;;;15.30;69.60;101105.06;6303602;22;20007;-59
2022/09/16 11:22:00;;;;;;;5.45;1.45;;;;;;;15.29;70.12;101101.44;6303287;22;20011;-59
2022/09/16 11:24:47;;;;;;;4.00;1.08;;;;;;;15.31;69.01;101104.78;6304055;22;20354;-58
2022/09/16 11:27:39;;;;;;;3.03;0.82;;;;;;;15.39;68.80;101104.22;6303079;22;20003;-58
2022/09/16 11:30:12;;;;;;;3.33;0.90;;;;;;;15.42;69.36;101088.84;6291936;22;20450;-58
2022/09/16 11:33:04;;;;;;;5.38;1.10;;;;;;;15.60;69.29;101095.81;6302850;22;20022;-59
2022/09/16 11:35:57;;;;;;;6.75;1.40;;;;;;;15.76;69.86;101108.75;6302195;22;20042;-58
2022/09/16 11:38:37;;;;;;;;;;;;;;;15.95;68.51;101101.44;6303005;22;20415;-58
2022/09/16 11:41:20;;;;;;;6.35;1.70;;;;;;;16.04;68.95;101109.25;6304116;22;19911;-58
2022/09/16 11:44:27;;;;;;;2.88;1.20;;;;;;;16.13;68.71;101110.34;6303672;22;19999;-58
2022/09/16 11:47:11;;;;;;;4.43;1.50;;;;;;;16.27;68.50;101111.44;6283912;22;20017;-58
2022/09/16 11:49:57;;;;;;;4.60;1.00;;;;;;;16.30;67.61;101113.63;6303664;22;20431;-58
2022/09/16 11:52:32;;;;;;;4.30;1.17;;;;;;;16.35;66.69;101113.66;6302341;22;20007;-58
2022/09/16 11:55:26;;;;;;;4.88;0.90;;;;;;;16.34;66.46;101111.09;6304283;22;20044;-57